Time;durP1;ratioP1;P1;durP2;ratioP2;P2;SDS_P1;SDS_P2;PMS_P1;PMS_P2;Temp;Humidity;BMP_temperature;BMP_pressure;BME280_temperature;BME280_humidity;BME280_pressure;Samples;Min_cycle;Max_cycle;Signal;HPM_P1;HPM_P2
2022/11/22 00:00:15;;;;;;;6.78;4.82;;;;;;;5.65;100.00;99162.28;6280991;22;20012;-79
2022/11/22 00:02:42;;;;;;;8.48;5.13;;;;;;;5.65;100.00;99165.66;6280893;22;20043;-79
2022/11/22 00:05:09;;;;;;;21.58;5.60;;;;;;;5.66;100.00;99171.66;6280954;22;20398;-79
2022/11/22 00:07:36;;;;;;;7.57;4.95;;;;;;;5.65;100.00;99165.66;6280477;22;20023;-78
2022/11/22 00:10:08;;;;;;;8.95;5.13;;;;;;;5.65;100.00;99160.38;6280366;22;20023;-79
2022/11/22 00:12:35;;;;;;;12.05;5.40;;;;;;;5.66;100.00;99155.81;6280472;22;20669;-79
2022/11/22 00:15:02;;;;;;;8.32;5.75;;;;;;;5.68;100.00;99166.66;6280817;22;20020;-79
2022/11/22 00:17:30;;;;;;;6.63;4.80;;;;;;;5.68;100.00;99156.13;6252911;22;20421;-79
2022/11/22 00:19:57;;;;;;;7.85;5.30;;;;;;;5.69;100.00;99168.13;6228081;22;20027;-79
2022/11/22 00:22:23;;;;;;;11.68;5.55;;;;;;;5.68;100.00;99159.47;6280063;22;20032;-79
2022/11/22 00:24:51;;;;;;;8.27;6.03;;;;;;;5.68;100.00;99164.03;6280167;22;20020;-79
2022/11/22 00:27:18;;;;;;;15.60;5.63;;;;;;;5.68;100.00;99171.94;6280283;22;20012;-79
2022/11/22 00:29:45;;;;;;;14.85;5.78;;;;;;;5.70;100.00;99156.41;6253126;22;20425;-79
2022/11/22 00:32:11;;;;;;;7.25;5.47;;;;;;;5.70;100.00;99148.47;6280144;22;20450;-79
2022/11/22 00:34:38;;;;;;;7.72;4.70;;;;;;;5.71;100.00;99149.94;6252811;22;20020;-79
2022/11/22 00:37:05;;;;;;;11.68;5.03;;;;;;;5.72;100.00;99148.03;6280968;22;20090;-79
2022/11/22 00:39:31;;;;;;;5.65;5.10;;;;;;;5.74;100.00;99150.97;6252352;22;20066;-78
2022/11/22 00:41:58;;;;;;;9.40;5.40;;;;;;;5.74;100.00;99148.31;6280755;22;20103;-78
2022/11/22 00:44:25;;;;;;;11.10;5.45;;;;;;;5.75;100.00;99150.53;6280187;22;20024;-78
2022/11/22 00:46:51;;;;;;;5.30;4.80;;;;;;;5.76;100.00;99151.25;6280515;22;20024;-78
2022/11/22 00:49:18;;;;;;;8.68;5.40;;;;;;;5.76;100.00;99149.34;6252589;22;20098;-78
2022/11/22 00:51:44;;;;;;;6.95;4.80;;;;;;;5.77;100.00;99158.00;6280737;22;20394;-78
2022/11/22 00:54:11;;;;;;;6.68;4.93;;;;;;;5.78;100.00;99159.47;6279833;22;20095;-78
2022/11/22 00:56:37;;;;;;;8.05;4.70;;;;;;;5.78;100.00;99151.53;6280072;22;20023;-79
2022/11/22 00:59:04;;;;;;;7.20;5.20;;;;;;;5.78;100.00;99154.19;6280519;22;20017;-79
2022/11/22 01:01:30;;;;;;;7.53;5.07;;;;;;;5.77;100.00;99152.72;6280019;22;20419;-79
2022/11/22 01:03:56;;;;;;;6.70;4.88;;;;;;;5.75;100.00;99157.72;6280234;22;20099;-78
2022/11/22 01:06:23;;;;;;;5.53;4.65;;;;;;;5.73;100.00;99155.50;6280893;22;20048;-78
2022/11/22 01:08:49;;;;;;;7.43;4.82;;;;;;;5.73;100.00;99162.69;6281437;22;20067;-78
2022/11/22 01:11:17;;;;;;;11.00;5.50;;;;;;;5.75;100.00;99160.34;6281704;22;20424;-79
2022/11/22 01:13:44;;;;;;;9.20;5.30;;;;;;;5.76;100.00;99157.28;6281902;22;20456;-79
2022/11/22 01:16:12;;;;;;;6.25;4.95;;;;;;;5.78;100.00;99156.81;6281870;22;20012;-80
2022/11/22 01:18:39;;;;;;;7.05;5.20;;;;;;;5.80;100.00;99170.31;6281696;22;20074;-79
2022/11/22 01:21:06;;;;;;;10.27;5.53;;;;;;;5.80;100.00;99162.41;6281695;22;20013;-79
2022/11/22 01:23:33;;;;;;;10.10;5.25;;;;;;;5.79;100.00;99156.38;6253721;22;20027;-79
2022/11/22 01:26:01;;;;;;;12.38;5.65;;;;;;;5.77;100.00;99148.16;6254648;22;20079;-79
2022/11/22 01:28:27;;;;;;;7.03;5.38;;;;;;;5.76;100.00;99149.34;6254132;22;20102;-79
2022/11/22 01:30:54;;;;;;;8.05;5.55;;;;;;;5.74;100.00;99158.88;6281256;22;20062;-79
2022/11/22 01:33:21;;;;;;;7.32;5.38;;;;;;;5.73;100.00;99154.78;6228885;22;20021;-79
2022/11/22 01:35:47;;;;;;;15.20;5.88;;;;;;;5.72;100.00;99151.41;6254332;22;20547;-79
2022/11/22 01:38:14;;;;;;;9.20;5.88;;;;;;;5.70;100.00;99153.75;6281986;22;20046;-79
2022/11/22 01:40:40;;;;;;;7.97;5.38;;;;;;;5.67;100.00;99149.38;6281914;22;20060;-79
2022/11/22 01:43:20;;;;;;;11.57;5.65;;;;;;;5.65;100.00;99157.72;6281773;22;20023;-79
2022/11/22 01:45:50;;;;;;;10.90;4.97;;;;;;;5.62;100.00;99163.16;6282299;22;20016;-79
2022/11/22 01:48:25;;;;;;;7.18;5.13;;;;;;;5.59;100.00;99164.81;6281547;22;20071;-79
2022/11/22 01:51:04;;;;;;;8.27;5.47;;;;;;;5.54;100.00;99154.09;6281102;22;20335;-79
2022/11/22 01:53:37;;;;;;;7.90;5.00;;;;;;;5.50;100.00;99164.81;6281351;22;20055;-79
2022/11/22 01:56:08;;;;;;;8.02;5.28;;;;;;;5.47;100.00;99157.78;6282031;22;20403;-79
2022/11/22 01:58:37;;;;;;;7.72;4.85;;;;;;;5.42;100.00;99158.38;6281322;22;20016;-79
2022/11/22 02:01:05;;;;;;;7.53;5.07;;;;;;;5.39;100.00;99156.59;6253852;22;20096;-79
2022/11/22 02:03:36;;;;;;;12.15;5.50;;;;;;;5.37;100.00;99161.59;6253882;22;20032;-79
2022/11/22 02:06:04;;;;;;;8.73;5.80;;;;;;;5.35;100.00;99161.28;6281105;22;20036;-79
2022/11/22 02:09:01;;;;;;;10.80;5.28;;;;;;;5.31;100.00;99166.00;6281527;22;20446;-79
2022/11/22 02:11:27;;;;;;;12.38;5.30;;;;;;;5.29;100.00;99170.97;6281313;22;20012;-79
2022/11/22 02:14:00;;;;;;;8.02;5.05;;;;;;;5.26;100.00;99183.13;6281649;22;20024;-78
2022/11/22 02:16:27;;;;;;;9.77;5.20;;;;;;;5.24;100.00;99174.94;6281194;22;20091;-79
2022/11/22 02:18:53;;;;;;;9.65;5.30;;;;;;;5.22;100.00;99179.19;6281945;22;20012;-79
2022/11/22 02:21:20;;;;;;;12.60;5.38;;;;;;;5.18;100.00;99182.00;6280748;22;20087;-79
2022/11/22 02:23:59;;;;;;;9.00;5.05;;;;;;;5.17;100.00;99177.16;6281513;22;20100;-78
2022/11/22 02:26:28;;;;;;;9.30;5.35;;;;;;;5.15;100.00;99187.41;6281317;22;20040;-78
2022/11/22 02:28:59;;;;;;;10.27;4.97;;;;;;;5.14;100.00;99185.94;6281646;22;20012;-78
2022/11/22 02:31:34;;;;;;;6.10;4.97;;;;;;;5.12;100.00;99180.38;6280809;22;20016;-78
2022/11/22 02:34:00;;;;;;;7.03;5.28;;;;;;;5.10;100.00;99180.06;6280993;22;20020;-78
2022/11/22 02:36:30;;;;;;;9.85;4.78;;;;;;;5.09;100.00;99186.53;6281297;22;20208;-78
2022/11/22 02:38:56;;;;;;;7.53;4.28;;;;;;;5.08;100.00;99185.78;6281691;22;20495;-78
2022/11/22 02:41:22;;;;;;;5.25;4.18;;;;;;;5.09;100.00;99189.16;6281146;22;20096;-78
2022/11/22 02:43:49;;;;;;;9.80;4.20;;;;;;;5.09;100.00;99187.25;6281591;22;20468;-79
2022/11/22 02:46:19;;;;;;;12.77;4.15;;;;;;;5.08;100.00;99193.69;6281235;22;20078;-79
2022/11/22 02:48:46;;;;;;;9.32;3.92;;;;;;;5.08;100.00;99187.69;6281148;22;20429;-79
2022/11/22 02:51:15;;;;;;;6.47;4.10;;;;;;;5.08;100.00;99191.06;6281521;22;20027;-78
2022/11/22 02:53:43;;;;;;;4.95;3.50;;;;;;;5.07;100.00;99186.22;6281544;22;20021;-78
2022/11/22 02:56:09;;;;;;;8.65;3.20;;;;;;;5.06;100.00;99190.03;6281574;22;20055;-79
2022/11/22 02:58:36;;;;;;;7.05;3.17;;;;;;;5.04;100.00;99193.09;6280882;22;20016;-78
2022/11/22 03:01:03;;;;;;;9.90;3.30;;;;;;;5.04;100.00;99187.84;6281315;22;20087;-78
2022/11/22 03:03:31;;;;;;;6.60;3.28;;;;;;;5.01;100.00;99181.53;6280245;22;20088;-78
2022/11/22 03:05:57;;;;;;;5.32;3.28;;;;;;;5.00;100.00;99181.97;6281406;22;20075;-78
2022/11/22 03:08:24;;;;;;;15.75;3.60;;;;;;;4.98;100.00;99192.94;6281256;22;20023;-79
2022/11/22 03:10:50;;;;;;;9.95;3.13;;;;;;;4.96;100.00;99199.84;6281449;22;20047;-79
2022/11/22 03:13:17;;;;;;;13.82;3.15;;;;;;;4.95;100.00;99207.00;6280934;22;20099;-79
2022/11/22 03:15:46;;;;;;;6.80;2.75;;;;;;;4.91;100.00;99209.06;6253887;22;20016;-79
2022/11/22 03:18:12;;;;;;;7.32;2.70;;;;;;;4.89;100.00;99211.38;6253396;22;20020;-79
2022/11/22 03:20:39;;;;;;;5.40;2.35;;;;;;;4.88;100.00;99215.19;6280892;22;20107;-79
2022/11/22 03:23:05;;;;;;;10.40;3.40;;;;;;;4.86;100.00;99220.16;6281222;22;20076;-79
2022/11/22 03:25:31;;;;;;;11.07;2.38;;;;;;;4.84;100.00;99219.88;6281066;22;20082;-79
2022/11/22 03:27:58;;;;;;;7.82;2.70;;;;;;;4.83;100.00;99215.03;6280983;22;20442;-79
2022/11/22 03:30:25;;;;;;;9.15;3.13;;;;;;;4.81;100.00;99220.00;6280602;22;20042;-79
2022/11/22 03:32:51;;;;;;;11.05;2.65;;;;;;;4.79;100.00;99219.75;6280007;22;20138;-79
2022/11/22 03:35:18;;;;;;;10.68;2.55;;;;;;;4.78;100.00;99215.63;6253103;22;20489;-79
2022/11/22 03:37:44;;;;;;;8.52;2.72;;;;;;;4.76;100.00;99220.59;6281434;22;20087;-78
2022/11/22 03:40:11;;;;;;;9.68;2.67;;;;;;;4.73;100.00;99216.19;6281068;22;20353;-78
2022/11/22 03:42:37;;;;;;;4.47;2.60;;;;;;;4.72;100.00;99222.66;6253249;22;20028;-78
2022/11/22 03:45:05;;;;;;;10.93;3.00;;;;;;;4.71;100.00;99229.09;6280977;22;20019;-78
2022/11/22 03:47:31;;;;;;;8.35;2.45;;;;;;;4.66;100.00;99236.41;6279958;22;20143;-78
2022/11/22 03:49:58;;;;;;;6.55;2.28;;;;;;;4.65;100.00;99224.38;6280750;22;20350;-78
2022/11/22 03:52:24;;;;;;;8.95;2.20;;;;;;;4.62;100.00;99229.78;6280516;22;20024;-78
2022/11/22 03:54:50;;;;;;;8.63;2.42;;;;;;;4.60;100.00;99234.75;6254104;22;20099;-78
2022/11/22 03:57:17;;;;;;;9.50;2.72;;;;;;;4.58;100.00;99229.19;6280555;22;20031;-78
2022/11/22 03:59:43;;;;;;;11.10;2.88;;;;;;;4.55;100.00;99236.06;6280772;22;20127;-78
2022/11/22 04:02:10;;;;;;;10.05;2.30;;;;;;;4.53;100.00;99237.66;6279981;22;20051;-78
2022/11/22 04:04:36;;;;;;;11.95;2.70;;;;;;;4.51;100.00;99234.72;6280377;22;20421;-78
2022/11/22 04:07:03;;;;;;;9.45;2.75;;;;;;;4.48;100.00;99235.59;6280844;22;20070;-78
2022/11/22 04:09:29;;;;;;;8.75;2.35;;;;;;;4.46;100.00;99228.09;6280234;22;20051;-78
2022/11/22 04:11:56;;;;;;;11.75;2.75;;;;;;;4.45;100.00;99236.44;6280708;22;20071;-78
2022/11/22 04:17:39;;;;;;;11.00;1.80;;;;;;;4.38;100.00;99242.75;6243949;22;20123;-78
2022/11/22 04:23:08;;;;;;;10.10;2.20;;;;;;;4.32;100.00;99237.28;6280715;22;20098;-78
2022/11/22 04:25:36;;;;;;;12.65;2.60;;;;;;;4.29;100.00;99232.16;6280314;22;20084;-78
2022/11/22 04:28:05;;;;;;;15.25;2.80;;;;;;;4.26;100.00;99233.75;6280759;22;20031;-78
2022/11/22 04:33:17;;;;;;;7.55;1.73;;;;;;;4.23;100.00;99241.78;6280377;22;20020;-78
2022/11/22 04:35:44;;;;;;;8.30;2.40;;;;;;;4.22;100.00;99245.56;6280672;22;20472;-78
2022/11/22 04:38:12;;;;;;;5.28;1.80;;;;;;;4.20;100.00;99248.63;6280585;22;20386;-78
2022/11/22 04:40:39;;;;;;;10.27;2.25;;;;;;;4.16;100.00;99237.50;6281020;22;20446;-78
2022/11/22 04:45:51;;;;;;;12.00;2.42;;;;;;;4.12;100.00;99244.06;6281483;22;20016;-78
2022/11/22 04:48:18;;;;;;;9.52;2.40;;;;;;;4.11;100.00;99245.94;6281469;22;20016;-78
2022/11/22 04:53:30;;;;;;;13.57;1.88;;;;;;;4.05;100.00;99260.84;6281551;22;20016;-78
2022/11/22 04:55:56;;;;;;;7.68;2.03;;;;;;;4.02;100.00;99264.31;6281966;22;20012;-78
2022/11/22 04:58:23;;;;;;;8.40;2.05;;;;;;;4.01;100.00;99260.22;6281600;22;20075;-78
2022/11/22 05:00:50;;;;;;;8.77;1.92;;;;;;;4.00;100.00;99264.75;6281363;22;20052;-78
2022/11/22 05:03:17;;;;;;;9.93;1.60;;;;;;;3.96;100.00;99268.69;6281447;22;20163;-77
2022/11/22 05:05:44;;;;;;;8.68;2.60;;;;;;;3.94;100.00;99265.75;6282034;22;20067;-78
2022/11/22 05:08:12;;;;;;;11.05;1.85;;;;;;;3.94;100.00;99257.88;6281864;22;20012;-78
2022/11/22 05:10:57;;;;;;;4.80;1.83;;;;;;;3.93;100.00;99266.94;6281739;22;20017;-78
2022/11/22 05:13:27;;;;;;;7.13;1.75;;;;;;;3.89;100.00;99261.78;6281034;22;20083;-77
2022/11/22 05:15:54;;;;;;;8.30;1.80;;;;;;;3.89;100.00;99271.56;6281889;22;20040;-77
2022/11/22 05:18:22;;;;;;;5.90;1.80;;;;;;;3.88;100.00;99275.38;6281452;22;20095;-77
2022/11/22 05:20:49;;;;;;;16.30;2.38;;;;;;;3.86;100.00;99275.06;6254255;22;20105;-77
2022/11/22 05:26:02;;;;;;;5.47;1.50;;;;;;;3.82;100.00;99277.81;6281984;22;20019;-77
2022/11/22 05:28:35;;;;;;;7.30;1.50;;;;;;;3.79;100.00;99278.66;6280987;22;20054;-77
2022/11/22 05:31:10;;;;;;;4.55;1.75;;;;;;;3.80;100.00;99280.13;6280996;22;20055;-77
2022/11/22 05:33:38;;;;;;;9.45;2.00;;;;;;;3.78;100.00;99282.47;6281363;22;20458;-77
2022/11/22 05:36:06;;;;;;;8.77;2.22;;;;;;;3.76;100.00;99281.41;6281712;22;20092;-77
2022/11/22 05:38:34;;;;;;;6.97;1.77;;;;;;;3.74;100.00;99281.09;6281494;22;20012;-77
2022/11/22 05:41:04;;;;;;;6.68;1.80;;;;;;;3.71;100.00;99281.97;6254289;22;20518;-77
2022/11/22 05:43:32;;;;;;;6.00;2.10;;;;;;;3.69;100.00;99285.75;6280939;22;20066;-78
2022/11/22 05:46:06;;;;;;;8.40;1.90;;;;;;;3.69;100.00;99282.38;6281740;22;20099;-77
2022/11/22 05:48:33;;;;;;;11.85;1.88;;;;;;;3.66;100.00;99281.34;6281380;22;20012;-77
2022/11/22 05:51:04;;;;;;;15.20;2.05;;;;;;;3.64;100.00;99283.66;6281347;22;20051;-77
2022/11/22 05:53:31;;;;;;;6.60;1.70;;;;;;;3.62;100.00;99275.47;6281246;22;20016;-77
2022/11/22 05:56:03;;;;;;;2.78;1.42;;;;;;;3.60;100.00;99283.03;6281833;22;20078;-77
2022/11/22 05:58:30;;;;;;;6.65;1.80;;;;;;;3.61;100.00;99278.50;6280939;22;20390;-77
2022/11/22 06:01:02;;;;;;;9.45;1.77;;;;;;;3.59;100.00;99284.22;6281503;22;20467;-77
2022/11/22 06:03:28;;;;;;;8.40;2.25;;;;;;;3.61;100.00;99294.31;6253911;22;20039;-77
2022/11/22 06:05:55;;;;;;;9.93;2.60;;;;;;;3.63;100.00;99290.09;6281399;22;20091;-77
2022/11/22 06:08:21;;;;;;;7.38;1.65;;;;;;;3.66;100.00;99280.59;6281250;22;20096;-78
2022/11/22 06:10:48;;;;;;;6.70;2.17;;;;;;;3.69;100.00;99291.00;6281343;22;20075;-77
2022/11/22 06:13:14;;;;;;;9.88;2.17;;;;;;;3.72;100.00;99284.16;6280981;22;20022;-77
2022/11/22 06:15:41;;;;;;;6.15;1.90;;;;;;;3.74;100.00;99289.75;6254509;22;20017;-77
2022/11/22 06:18:07;;;;;;;10.73;1.60;;;;;;;3.76;100.00;99284.78;6281491;22;20017;-78
2022/11/22 06:20:34;;;;;;;5.93;1.92;;;;;;;3.79;100.00;99285.81;6281237;22;20592;-77
2022/11/22 06:23:00;;;;;;;8.73;2.25;;;;;;;3.80;100.00;99290.66;6254150;22;20023;-77
2022/11/22 06:25:27;;;;;;;5.18;1.83;;;;;;;3.83;100.00;99295.09;6281304;22;20012;-77
2022/11/22 06:27:57;;;;;;;10.30;2.17;;;;;;;3.84;100.00;99291.28;6280902;22;20016;-78
2022/11/22 06:30:24;;;;;;;7.88;2.20;;;;;;;3.86;100.00;99301.38;6280870;22;20070;-78
2022/11/22 06:32:50;;;;;;;6.82;1.88;;;;;;;3.88;100.00;99299.06;6280981;22;20051;-77
2022/11/22 06:35:17;;;;;;;10.18;2.35;;;;;;;3.89;100.00;99293.38;6282003;22;20456;-77
2022/11/22 06:37:44;;;;;;;13.23;2.03;;;;;;;3.91;100.00;99287.69;6282298;22;20099;-78
2022/11/22 06:40:11;;;;;;;11.68;2.53;;;;;;;3.92;100.00;99281.25;6254734;22;20020;-79
2022/11/22 06:42:37;;;;;;;9.18;2.45;;;;;;;3.93;100.00;99277.47;6280515;22;20059;-79
2022/11/22 06:45:04;;;;;;;7.38;2.70;;;;;;;3.91;100.00;99285.78;6281393;22;20637;-79
2022/11/22 06:47:31;;;;;;;8.25;2.50;;;;;;;3.92;100.00;99281.97;6253513;22;20119;-78
2022/11/22 06:49:57;;;;;;;3.50;1.95;;;;;;;3.92;100.00;99283.88;6281181;22;20012;-78
2022/11/22 06:52:25;;;;;;;9.85;2.28;;;;;;;3.93;100.00;99283.47;6282026;22;20087;-78
2022/11/22 06:54:51;;;;;;;3.20;1.95;;;;;;;3.93;100.00;99285.34;6254307;22;20024;-77
2022/11/22 06:57:19;;;;;;;6.13;2.25;;;;;;;3.94;100.00;99294.72;6255326;22;20032;-79
2022/11/22 06:59:45;;;;;;;7.28;2.08;;;;;;;3.95;100.00;99304.81;6282549;22;20017;-78
2022/11/22 07:02:12;;;;;;;2.65;1.75;;;;;;;3.95;100.00;99299.56;6282381;22;20027;-80
2022/11/22 07:04:38;;;;;;;8.15;2.35;;;;;;;3.96;100.00;99297.66;6281746;22;20012;-79
2022/11/22 07:07:25;;;;;;;5.13;2.03;;;;;;;3.97;100.00;99301.78;6282112;22;20135;-80
2022/11/22 07:09:51;;;;;;;12.45;2.17;;;;;;;3.97;100.00;99301.78;6281537;22;20020;-79
2022/11/22 07:12:22;;;;;;;5.65;1.73;;;;;;;3.98;100.00;99300.59;6282268;22;20135;-79
2022/11/22 07:14:48;;;;;;;8.50;2.35;;;;;;;3.97;100.00;99299.88;6282202;22;20071;-79
2022/11/22 07:17:14;;;;;;;5.35;2.30;;;;;;;3.98;100.00;99296.06;6282168;22;20028;-79
2022/11/22 07:19:41;;;;;;;4.28;1.75;;;;;;;3.98;100.00;99298.72;6281637;22;20103;-80
2022/11/22 07:22:08;;;;;;;6.57;1.95;;;;;;;4.01;100.00;99303.09;6281816;22;20248;-79
2022/11/22 07:24:34;;;;;;;9.90;2.40;;;;;;;4.01;100.00;99313.63;6281182;22;20028;-83
2022/11/22 07:27:00;;;;;;;6.10;2.15;;;;;;;4.03;100.00;99313.94;6282152;22;20019;-84
2022/11/22 07:29:27;;;;;;;7.95;2.22;;;;;;;4.04;100.00;99312.03;6281965;22;20012;-81
2022/11/22 07:31:54;;;;;;;4.50;2.17;;;;;;;4.06;100.00;99327.41;6254787;22;20024;-80
2022/11/22 07:34:20;;;;;;;11.38;2.58;;;;;;;4.07;100.00;99324.34;6281930;22;20083;-81
2022/11/22 07:36:47;;;;;;;6.90;2.38;;;;;;;4.09;100.00;99326.56;6282004;22;20020;-81
2022/11/22 07:39:13;;;;;;;5.63;2.28;;;;;;;4.10;100.00;99326.13;6281181;22;20453;-81
2022/11/22 07:41:39;;;;;;;4.43;2.20;;;;;;;4.12;100.00;99328.34;6282324;22;20023;-79
2022/11/22 07:44:06;;;;;;;5.97;2.45;;;;;;;4.13;100.00;99324.53;6254790;22;20079;-78
2022/11/22 07:46:32;;;;;;;7.97;2.35;;;;;;;4.14;100.00;99328.63;6281776;22;20269;-78
2022/11/22 07:49:00;;;;;;;7.82;2.08;;;;;;;4.14;100.00;99318.84;6254673;22;20023;-78
2022/11/22 07:51:27;;;;;;;7.55;2.22;;;;;;;4.16;100.00;99329.69;6254240;22;20032;-79
2022/11/22 07:53:55;;;;;;;7.47;1.98;;;;;;;4.17;100.00;99327.78;6281139;22;20462;-80
2022/11/22 07:56:22;;;;;;;7.18;2.10;;;;;;;4.18;100.00;99326.63;6254224;22;20020;-78
2022/11/22 07:58:49;;;;;;;6.20;1.98;;;;;;;4.18;100.00;99324.72;6281647;22;20468;-79
2022/11/22 08:01:17;;;;;;;10.27;2.38;;;;;;;4.19;100.00;99323.56;6281445;22;20021;-81
2022/11/22 08:03:44;;;;;;;7.13;1.88;;;;;;;4.21;100.00;99318.59;6281415;22;20023;-81
2022/11/22 08:06:11;;;;;;;13.13;2.53;;;;;;;4.20;100.00;99319.75;6281285;22;20442;-77
2022/11/22 08:08:38;;;;;;;6.35;2.78;;;;;;;4.22;100.00;99324.59;6280930;22;20095;-78
2022/11/22 08:11:06;;;;;;;6.75;2.83;;;;;;;4.24;100.00;99317.00;6281487;22;20408;-78
2022/11/22 08:13:33;;;;;;;8.55;2.55;;;;;;;4.25;100.00;99329.00;6281486;22;20012;-78
2022/11/22 08:16:14;;;;;;;8.98;2.40;;;;;;;4.26;100.00;99330.47;6282567;22;20016;-78
2022/11/22 08:18:44;;;;;;;4.53;2.23;;;;;;;4.28;100.00;99336.78;6255859;22;20426;-78
2022/11/22 08:21:13;;;;;;;6.68;2.78;;;;;;;4.28;100.00;99334.16;6283078;22;20289;-79
2022/11/22 08:23:40;;;;;;;10.55;2.90;;;;;;;4.29;100.00;99333.00;6282921;22;20352;-81
2022/11/22 08:26:11;;;;;;;8.50;2.50;;;;;;;4.31;100.00;99329.94;6283131;22;20047;-86
2022/11/22 08:28:38;;;;;;;10.57;2.97;;;;;;;4.33;100.00;99335.50;6282810;22;20083;-86
2022/11/22 08:31:13;;;;;;;7.63;2.65;;;;;;;4.32;100.00;99328.78;6255588;22;20083;-92
2022/11/22 08:33:41;;;;;;;7.53;2.60;;;;;;;4.33;100.00;99336.25;6283203;22;20012;-83
2022/11/22 08:36:07;;;;;;;7.50;2.28;;;;;;;4.34;100.00;99336.97;6282820;22;20016;-82
2022/11/22 08:38:34;;;;;;;17.50;2.53;;;;;;;4.35;100.00;99343.72;6281003;22;20100;-78
2022/11/22 08:41:03;;;;;;;11.60;3.03;;;;;;;4.37;100.00;99351.19;6282565;22;20016;-79
2022/11/22 08:43:30;;;;;;;10.00;2.95;;;;;;;4.39;100.00;99356.78;6281995;22;20039;-79
2022/11/22 08:45:57;;;;;;;4.95;2.00;;;;;;;4.40;100.00;99351.03;6282058;22;20509;-77
2022/11/22 08:48:25;;;;;;;10.07;2.90;;;;;;;4.41;100.00;99355.16;6282428;22;20077;-80
2022/11/22 08:50:57;;;;;;;4.20;2.50;;;;;;;4.44;100.00;99358.81;6281755;22;20048;-82
2022/11/22 08:53:24;;;;;;;10.57;2.65;;;;;;;4.46;100.00;99359.13;6282423;22;20032;-80
2022/11/22 08:55:51;;;;;;;7.00;2.38;;;;;;;4.48;100.00;99362.81;6255678;22;20012;-79
2022/11/22 08:58:18;;;;;;;8.45;2.90;;;;;;;4.49;100.00;99363.53;6282488;22;20082;-78
2022/11/22 09:00:44;;;;;;;8.10;2.65;;;;;;;4.53;100.00;99364.88;6282660;22;20016;-79
2022/11/22 09:03:11;;;;;;;4.28;2.15;;;;;;;4.56;100.00;99363.28;6282641;22;20523;-77
2022/11/22 09:05:37;;;;;;;7.35;2.30;;;;;;;4.59;100.00;99372.97;6282095;22;20071;-79
2022/11/22 09:08:24;;;;;;;4.55;2.10;;;;;;;4.59;100.00;99371.06;6282507;22;20044;-76
2022/11/22 09:10:50;;;;;;;8.65;2.40;;;;;;;4.61;100.00;99376.66;6282452;22;20024;-76
2022/11/22 09:13:16;;;;;;;9.70;2.17;;;;;;;4.63;100.00;99376.22;6282164;22;20016;-76
2022/11/22 09:15:43;;;;;;;3.75;2.45;;;;;;;4.66;100.00;99383.28;6282601;22;20016;-78
2022/11/22 09:18:09;;;;;;;9.18;2.40;;;;;;;4.68;100.00;99380.94;6282210;22;20019;-78
2022/11/22 09:20:36;;;;;;;7.25;2.13;;;;;;;4.69;100.00;99372.59;6254418;22;20048;-78
2022/11/22 09:23:03;;;;;;;7.75;2.33;;;;;;;4.73;100.00;99380.38;6255118;22;20378;-79
2022/11/22 09:25:29;;;;;;;7.63;2.63;;;;;;;4.76;100.00;99384.81;6282192;22;20074;-77
2022/11/22 09:28:01;;;;;;;8.70;2.58;;;;;;;4.80;100.00;99389.94;6281612;22;20012;-76
2022/11/22 09:30:29;;;;;;;4.90;2.10;;;;;;;4.83;100.00;99386.41;6282297;22;20020;-76
2022/11/22 09:32:55;;;;;;;5.15;2.10;;;;;;;4.84;100.00;99391.25;6282230;22;20091;-76
2022/11/22 09:35:21;;;;;;;5.63;2.40;;;;;;;4.88;100.00;99393.78;6281427;22;20020;-76
2022/11/22 09:37:48;;;;;;;5.15;2.20;;;;;;;4.88;100.00;99391.13;6282529;22;20099;-78
2022/11/22 09:40:15;;;;;;;11.82;2.58;;;;;;;4.89;100.00;99393.34;6282438;22;20017;-77
2022/11/22 09:43:02;;;;;;;5.82;2.47;;;;;;;4.90;100.00;99389.53;6282518;22;20076;-76
2022/11/22 09:45:44;;;;;;;8.50;2.78;;;;;;;4.91;100.00;99388.38;6282509;22;20417;-76
2022/11/22 09:48:29;;;;;;;4.38;2.28;;;;;;;4.93;100.00;99393.94;6282346;22;20043;-76
2022/11/22 09:50:58;;;;;;;4.75;2.28;;;;;;;4.93;100.00;99393.94;6254425;22;20027;-76
2022/11/22 09:53:33;;;;;;;9.98;2.30;;;;;;;4.95;100.00;99398.78;6281823;22;20012;-76
2022/11/22 09:56:07;;;;;;;8.20;2.63;;;;;;;4.95;100.00;99393.53;6282283;22;20075;-76
2022/11/22 09:58:58;;;;;;;3.47;2.00;;;;;;;4.99;100.00;99399.41;6282084;22;20091;-76
2022/11/22 10:01:37;;;;;;;5.50;2.20;;;;;;;4.99;100.00;99400.13;6282126;22;20465;-77
2022/11/22 10:04:11;;;;;;;5.65;2.40;;;;;;;5.03;100.00;99402.66;6281754;22;20017;-76
2022/11/22 10:06:41;;;;;;;4.85;2.47;;;;;;;5.03;99.64;99400.75;6282258;22;20179;-76
2022/11/22 10:09:27;;;;;;;5.22;2.35;;;;;;;5.04;100.00;99396.19;6254637;22;20063;-76
2022/11/22 10:11:58;;;;;;;8.27;2.47;;;;;;;5.08;100.00;99394.16;6281980;22;20354;-76
2022/11/22 10:14:36;;;;;;;4.32;2.08;;;;;;;5.10;99.95;99397.09;6282327;22;20083;-76
2022/11/22 10:17:31;;;;;;;8.25;2.42;;;;;;;5.11;99.72;99393.31;6281958;22;20468;-76
2022/11/22 10:20:04;;;;;;;8.40;2.40;;;;;;;5.12;99.91;99386.13;6281631;22;20044;-78
2022/11/22 10:22:32;;;;;;;6.95;2.45;;;;;;;5.15;100.00;99395.81;6282323;22;20017;-76
2022/11/22 10:25:01;;;;;;;4.65;2.50;;;;;;;5.15;99.60;99391.28;6281922;22;20456;-76
2022/11/22 10:27:31;;;;;;;5.35;2.03;;;;;;;5.16;99.59;99394.66;6282224;22;20016;-75
2022/11/22 10:30:12;;;;;;;6.00;2.63;;;;;;;5.19;99.61;99393.78;6282245;22;20044;-76
2022/11/22 10:32:44;;;;;;;5.28;2.08;;;;;;;5.21;99.74;99388.78;6280876;22;20099;-76
2022/11/22 10:35:21;;;;;;;8.15;2.00;;;;;;;5.22;99.51;99384.97;6282161;22;20012;-76
2022/11/22 10:38:19;;;;;;;8.75;2.33;;;;;;;5.24;99.53;99378.09;6282106;22;20445;-76
2022/11/22 10:41:09;;;;;;;2.67;2.00;;;;;;;5.27;99.37;99387.03;6281986;22;20019;-76
2022/11/22 10:43:49;;;;;;;11.20;2.50;;;;;;;5.29;99.25;99377.53;6281914;22;20027;-76
2022/11/22 10:46:16;;;;;;;6.03;2.13;;;;;;;5.34;99.27;99370.94;6281932;22;20012;-76
2022/11/22 10:48:53;;;;;;;3.80;2.25;;;;;;;5.38;99.19;99374.19;6281621;22;20446;-76
2022/11/22 10:51:33;;;;;;;4.55;2.00;;;;;;;5.41;99.10;99375.22;6281663;22;20051;-76
2022/11/22 10:54:19;;;;;;;10.23;2.80;;;;;;;5.43;98.80;99383.44;6254758;22;20074;-76
2022/11/22 10:56:59;;;;;;;9.65;2.25;;;;;;;5.47;98.93;99379.47;6283167;22;20051;-75
2022/11/22 10:59:54;;;;;;;7.32;2.30;;;;;;;5.52;98.48;99371.00;6281753;22;20012;-76
2022/11/22 11:02:26;;;;;;;6.03;2.10;;;;;;;5.57;98.60;99370.41;6282060;22;20018;-75
2022/11/22 11:04:54;;;;;;;6.88;2.50;;;;;;;5.66;98.21;99370.41;6281194;22;20032;-76
2022/11/22 11:07:24;;;;;;;3.85;2.08;;;;;;;5.75;98.22;99366.31;6282409;22;20012;-75
2022/11/22 11:10:02;;;;;;;6.72;2.53;;;;;;;5.82;98.38;99344.91;6281943;22;20023;-78
2022/11/22 11:12:45;;;;;;;4.03;2.25;;;;;;;5.86;97.68;99351.50;6280305;22;20494;-77
2022/11/22 11:15:21;;;;;;;3.08;2.40;;;;;;;5.91;97.26;99356.25;6281389;22;20020;-76
2022/11/22 11:18:01;;;;;;;4.20;2.20;;;;;;;5.96;97.36;99349.63;6281247;22;20381;-75
2022/11/22 11:20:35;;;;;;;6.25;2.08;;;;;;;6.00;96.88;99350.94;6254634;22;20027;-78
2022/11/22 11:23:02;;;;;;;6.35;2.10;;;;;;;6.02;96.35;99359.16;6282003;22;20097;-77
2022/11/22 11:25:44;;;;;;;;;;;;;;;6.05;97.66;99356.81;6282481;22;20086;-77
2022/11/22 11:28:28;;;;;;;3.50;1.83;;;;;;;6.06;96.86;99359.00;6281884;22;20006;-77
2022/11/22 11:31:00;;;;;;;7.47;2.25;;;;;;;6.04;96.21;99353.44;6280175;22;20083;-77
2022/11/22 11:33:33;;;;;;;5.30;1.55;;;;;;;6.08;95.83;99351.38;6281259;22;20054;-78
2022/11/22 11:36:09;;;;;;;2.17;1.55;;;;;;;6.09;96.06;99349.47;6281844;22;20099;-77
2022/11/22 11:38:41;;;;;;;3.20;2.20;;;;;;;6.08;95.62;99350.63;6281625;22;20122;-78
2022/11/22 11:41:24;;;;;;;5.15;2.10;;;;;;;6.09;95.66;99342.28;6281764;22;20040;-76
2022/11/22 11:43:53;;;;;;;407.95;225.40;;;;;;;6.11;95.81;99350.50;6281302;22;20504;-76
2022/11/22 11:46:28;;;;;;;6.65;4.63;;;;;;;6.12;95.39;99341.41;6252940;22;20043;-75
2022/11/22 11:49:08;;;;;;;5.50;3.22;;;;;;;6.11;95.42;99341.84;6281370;22;20012;-78
2022/11/22 11:51:48;;;;;;;5.53;2.83;;;;;;;6.13;95.35;99336.84;6281359;22;20012;-77
2022/11/22 11:54:21;;;;;;;2.60;2.38;;;;;;;6.17;95.13;99340.06;6281539;22;20020;-77
2022/11/22 11:56:49;;;;;;;4.25;1.88;;;;;;;6.19;95.21;99350.94;6281726;22;20031;-77
2022/11/22 11:59:21;;;;;;;4.30;1.70;;;;;;;6.19;95.61;99351.66;6253596;22;20020;-77
2022/11/22 12:01:52;;;;;;;;;;;;;;;6.23;95.90;99354.91;6281800;22;20452;-77